Aledo, Texas
Current Conditions -  °F | °C
As of 5:52 PM on Saturday 25 Oct 2014 (Local Time) from KNFW Reporting Station
Clear Clear  
Wind Chill: 33°   Ceiling: Unl
Heat Index: 33°   Visibility: 10mi
Dew Point: 13°   Wind: 9mph
Humidity: 30%   Direction: 180°S
Pressure: 30.08"   Gusts: NA
Location:  32.7°N, 97.6°W
Report Text: KNFW 252252Z AUTO 18008KT 10SM CLR 33/13 A3008 RMK AO2 SLP169 T03280133 CHINO N VISNO N $
Loading
Personal Weather Stations






























Interactive Weather Map
Tropical Storm Tracking
New forecast layout! Learn more

10-Day Weather Forecast

Advertisements
Track Severe Weather on mobile